Point Arena, California
Current Conditions -  °F | °C
As of 2:56 AM on Thursday 23 Oct 2014 (Local Time) from KUKI Reporting Station
Broken Clouds Broken Clouds  
Wind Chill: 58°   Ceiling: 2600
Heat Index: 58°   Visibility: 10mi
Dew Point: 54°   Wind: 0mph
Humidity: 87%   Direction: NA
Pressure: 30.04"   Gusts: NA
Location:  38.91°N, 123.69°W
Report Text: KUKI 230956Z AUTO 00000KT 10SM BKN026 14/12 A3004 RMK AO2 SLP168 T01440122
Loading
Personal Weather Stations






























Interactive Weather Map
Tropical Storm Tracking
New forecast layout! Learn more

10-Day Weather Forecast

Advertisements
Track Severe Weather on mobile